sensor_id;sensor_type;location;lat;lon;timestamp;P1;durP1;ratioP1;P2;durP2;ratioP2
5339;SDS011;2692;48.848;8.924;2022-09-03T00:01:42;1.80;;;0.80;;
5339;SDS011;2692;48.848;8.924;2022-09-03T00:04:23;1.40;;;0.77;;
5339;SDS011;2692;48.848;8.924;2022-09-03T00:07:03;2.10;;;1.13;;
5339;SDS011;2692;48.848;8.924;2022-09-03T00:09:33;1.67;;;0.70;;
5339;SDS011;2692;48.848;8.924;2022-09-03T00:12:13;2.00;;;1.20;;
5339;SDS011;2692;48.848;8.924;2022-09-03T00:15:03;2.23;;;1.20;;
5339;SDS011;2692;48.848;8.924;2022-09-03T00:18:26;2.60;;;1.07;;
5339;SDS011;2692;48.848;8.924;2022-09-03T00:20:41;3.00;;;1.20;;
5339;SDS011;2692;48.848;8.924;2022-09-03T00:23:11;2.00;;;0.87;;
5339;SDS011;2692;48.848;8.924;2022-09-03T00:25:45;2.67;;;1.30;;
5339;SDS011;2692;48.848;8.924;2022-09-03T00:28:19;3.83;;;1.80;;
5339;SDS011;2692;48.848;8.924;2022-09-03T00:30:49;4.93;;;1.13;;
5339;SDS011;2692;48.848;8.924;2022-09-03T00:33:19;2.13;;;1.10;;
5339;SDS011;2692;48.848;8.924;2022-09-03T00:38:29;1.70;;;1.00;;
5339;SDS011;2692;48.848;8.924;2022-09-03T00:46:40;2.03;;;1.03;;
5339;SDS011;2692;48.848;8.924;2022-09-03T00:49:19;3.17;;;1.30;;
5339;SDS011;2692;48.848;8.924;2022-09-03T00:52:15;1.90;;;1.00;;
5339;SDS011;2692;48.848;8.924;2022-09-03T01:00:07;3.27;;;1.27;;
5339;SDS011;2692;48.848;8.924;2022-09-03T01:11:31;2.60;;;1.30;;
5339;SDS011;2692;48.848;8.924;2022-09-03T01:13:46;3.40;;;1.00;;
5339;SDS011;2692;48.848;8.924;2022-09-03T01:27:40;4.20;;;1.03;;
5339;SDS011;2692;48.848;8.924;2022-09-03T01:30:11;2.40;;;1.00;;
5339;SDS011;2692;48.848;8.924;2022-09-03T01:38:17;1.33;;;0.63;;
5339;SDS011;2692;48.848;8.924;2022-09-03T01:46:43;8.27;;;1.20;;
5339;SDS011;2692;48.848;8.924;2022-09-03T01:49:33;3.17;;;1.53;;
5339;SDS011;2692;48.848;8.924;2022-09-03T01:52:11;3.53;;;1.43;;
5339;SDS011;2692;48.848;8.924;2022-09-03T01:54:50;2.90;;;1.03;;
5339;SDS011;2692;48.848;8.924;2022-09-03T01:57:39;5.63;;;1.37;;
5339;SDS011;2692;48.848;8.924;2022-09-03T02:00:17;2.77;;;1.47;;
5339;SDS011;2692;48.848;8.924;2022-09-03T02:02:45;1.63;;;0.90;;
5339;SDS011;2692;48.848;8.924;2022-09-03T02:07:59;2.27;;;1.20;;
5339;SDS011;2692;48.848;8.924;2022-09-03T02:13:19;2.47;;;1.20;;
5339;SDS011;2692;48.848;8.924;2022-09-03T02:15:46;5.80;;;1.13;;
5339;SDS011;2692;48.848;8.924;2022-09-03T02:18:20;2.33;;;1.00;;
5339;SDS011;2692;48.848;8.924;2022-09-03T02:21:00;3.00;;;1.53;;
5339;SDS011;2692;48.848;8.924;2022-09-03T02:23:26;1.97;;;1.30;;
5339;SDS011;2692;48.848;8.924;2022-09-03T02:25:54;4.90;;;1.33;;
5339;SDS011;2692;48.848;8.924;2022-09-03T02:28:21;5.73;;;1.27;;
5339;SDS011;2692;48.848;8.924;2022-09-03T02:30:47;3.03;;;1.40;;
5339;SDS011;2692;48.848;8.924;2022-09-03T02:33:13;3.50;;;1.57;;
5339;SDS011;2692;48.848;8.924;2022-09-03T02:35:39;7.80;;;1.13;;
5339;SDS011;2692;48.848;8.924;2022-09-03T02:38:13;3.53;;;1.10;;
5339;SDS011;2692;48.848;8.924;2022-09-03T02:40:40;2.20;;;1.20;;
5339;SDS011;2692;48.848;8.924;2022-09-03T02:43:07;1.90;;;1.03;;
5339;SDS011;2692;48.848;8.924;2022-09-03T02:45:35;3.70;;;1.37;;
5339;SDS011;2692;48.848;8.924;2022-09-03T02:48:01;1.60;;;1.00;;
5339;SDS011;2692;48.848;8.924;2022-09-03T02:50:27;1.90;;;1.00;;
5339;SDS011;2692;48.848;8.924;2022-09-03T02:52:53;1.63;;;0.97;;
5339;SDS011;2692;48.848;8.924;2022-09-03T02:55:18;1.77;;;1.00;;
5339;SDS011;2692;48.848;8.924;2022-09-03T02:57:44;2.00;;;1.07;;
5339;SDS011;2692;48.848;8.924;2022-09-03T03:00:10;2.43;;;1.03;;
5339;SDS011;2692;48.848;8.924;2022-09-03T03:02:36;3.37;;;1.23;;
5339;SDS011;2692;48.848;8.924;2022-09-03T03:05:01;2.80;;;1.47;;
5339;SDS011;2692;48.848;8.924;2022-09-03T03:07:27;1.40;;;0.77;;
5339;SDS011;2692;48.848;8.924;2022-09-03T03:09:54;7.57;;;1.20;;
5339;SDS011;2692;48.848;8.924;2022-09-03T03:12:19;4.03;;;1.13;;
5339;SDS011;2692;48.848;8.924;2022-09-03T03:14:45;2.37;;;1.23;;
5339;SDS011;2692;48.848;8.924;2022-09-03T03:17:10;2.27;;;1.03;;
5339;SDS011;2692;48.848;8.924;2022-09-03T03:19:36;2.70;;;1.40;;
5339;SDS011;2692;48.848;8.924;2022-09-03T03:22:01;2.17;;;1.33;;
5339;SDS011;2692;48.848;8.924;2022-09-03T03:24:26;2.10;;;1.23;;
5339;SDS011;2692;48.848;8.924;2022-09-03T03:26:54;2.63;;;1.30;;
5339;SDS011;2692;48.848;8.924;2022-09-03T03:29:22;3.03;;;1.33;;
5339;SDS011;2692;48.848;8.924;2022-09-03T03:31:49;2.23;;;1.27;;
5339;SDS011;2692;48.848;8.924;2022-09-03T03:34:14;1.77;;;1.10;;
5339;SDS011;2692;48.848;8.924;2022-09-03T03:36:39;2.67;;;1.30;;
5339;SDS011;2692;48.848;8.924;2022-09-03T03:39:05;2.60;;;1.43;;
5339;SDS011;2692;48.848;8.924;2022-09-03T03:41:31;2.23;;;1.00;;
5339;SDS011;2692;48.848;8.924;2022-09-03T03:43:58;2.87;;;1.30;;
5339;SDS011;2692;48.848;8.924;2022-09-03T03:46:27;6.23;;;1.63;;
5339;SDS011;2692;48.848;8.924;2022-09-03T03:49:11;4.63;;;2.13;;
5339;SDS011;2692;48.848;8.924;2022-09-03T03:51:37;5.00;;;1.43;;
5339;SDS011;2692;48.848;8.924;2022-09-03T03:54:03;3.07;;;1.33;;
5339;SDS011;2692;48.848;8.924;2022-09-03T03:56:28;3.20;;;1.53;;
5339;SDS011;2692;48.848;8.924;2022-09-03T03:58:54;1.70;;;0.73;;
5339;SDS011;2692;48.848;8.924;2022-09-03T04:01:21;2.67;;;1.00;;
5339;SDS011;2692;48.848;8.924;2022-09-03T04:03:47;2.83;;;1.10;;
5339;SDS011;2692;48.848;8.924;2022-09-03T04:06:14;2.50;;;1.17;;
5339;SDS011;2692;48.848;8.924;2022-09-03T04:08:41;2.13;;;1.20;;
5339;SDS011;2692;48.848;8.924;2022-09-03T04:11:08;2.07;;;0.90;;
5339;SDS011;2692;48.848;8.924;2022-09-03T04:13:35;4.43;;;1.23;;
5339;SDS011;2692;48.848;8.924;2022-09-03T04:18:28;2.77;;;1.40;;
5339;SDS011;2692;48.848;8.924;2022-09-03T04:20:58;2.17;;;1.10;;
5339;SDS011;2692;48.848;8.924;2022-09-03T04:23:24;2.00;;;0.93;;
5339;SDS011;2692;48.848;8.924;2022-09-03T04:25:53;1.60;;;0.90;;
5339;SDS011;2692;48.848;8.924;2022-09-03T04:28:18;3.23;;;1.17;;
5339;SDS011;2692;48.848;8.924;2022-09-03T04:30:43;1.93;;;0.97;;
5339;SDS011;2692;48.848;8.924;2022-09-03T04:33:08;4.70;;;1.10;;
5339;SDS011;2692;48.848;8.924;2022-09-03T04:35:34;3.83;;;1.20;;
5339;SDS011;2692;48.848;8.924;2022-09-03T04:37:59;3.00;;;0.93;;
5339;SDS011;2692;48.848;8.924;2022-09-03T04:40:24;3.60;;;1.77;;
5339;SDS011;2692;48.848;8.924;2022-09-03T04:42:50;2.17;;;1.17;;
5339;SDS011;2692;48.848;8.924;2022-09-03T04:45:16;3.70;;;1.13;;
5339;SDS011;2692;48.848;8.924;2022-09-03T04:47:44;2.07;;;1.13;;
5339;SDS011;2692;48.848;8.924;2022-09-03T04:50:19;3.33;;;1.10;;
5339;SDS011;2692;48.848;8.924;2022-09-03T04:52:45;3.10;;;1.20;;
5339;SDS011;2692;48.848;8.924;2022-09-03T04:55:11;4.50;;;1.97;;
5339;SDS011;2692;48.848;8.924;2022-09-03T04:57:36;2.57;;;1.10;;
5339;SDS011;2692;48.848;8.924;2022-09-03T05:00:02;2.90;;;1.47;;
5339;SDS011;2692;48.848;8.924;2022-09-03T05:02:28;2.10;;;1.17;;
5339;SDS011;2692;48.848;8.924;2022-09-03T05:04:53;2.40;;;1.03;;
5339;SDS011;2692;48.848;8.924;2022-09-03T05:07:19;2.57;;;1.10;;
5339;SDS011;2692;48.848;8.924;2022-09-03T05:09:45;1.80;;;1.10;;
5339;SDS011;2692;48.848;8.924;2022-09-03T05:12:10;2.30;;;1.43;;
5339;SDS011;2692;48.848;8.924;2022-09-03T05:14:35;3.67;;;1.80;;
5339;SDS011;2692;48.848;8.924;2022-09-03T05:17:01;1.97;;;1.00;;
5339;SDS011;2692;48.848;8.924;2022-09-03T05:19:26;1.77;;;1.17;;
5339;SDS011;2692;48.848;8.924;2022-09-03T05:21:52;1.60;;;1.10;;
5339;SDS011;2692;48.848;8.924;2022-09-03T05:24:17;2.80;;;1.10;;
5339;SDS011;2692;48.848;8.924;2022-09-03T05:26:42;1.67;;;1.03;;
5339;SDS011;2692;48.848;8.924;2022-09-03T05:29:08;3.77;;;1.90;;
5339;SDS011;2692;48.848;8.924;2022-09-03T05:31:34;3.30;;;1.60;;
5339;SDS011;2692;48.848;8.924;2022-09-03T05:34:03;2.30;;;1.20;;
5339;SDS011;2692;48.848;8.924;2022-09-03T05:36:30;2.83;;;1.40;;
5339;SDS011;2692;48.848;8.924;2022-09-03T05:38:57;3.43;;;1.73;;
5339;SDS011;2692;48.848;8.924;2022-09-03T05:41:22;3.40;;;1.90;;
5339;SDS011;2692;48.848;8.924;2022-09-03T05:43:48;4.73;;;2.33;;
5339;SDS011;2692;48.848;8.924;2022-09-03T05:46:23;3.40;;;2.10;;
5339;SDS011;2692;48.848;8.924;2022-09-03T05:48:54;3.60;;;1.90;;
5339;SDS011;2692;48.848;8.924;2022-09-03T05:51:19;3.77;;;1.80;;
5339;SDS011;2692;48.848;8.924;2022-09-03T05:53:45;4.67;;;2.30;;
5339;SDS011;2692;48.848;8.924;2022-09-03T05:56:12;2.57;;;1.13;;
5339;SDS011;2692;48.848;8.924;2022-09-03T05:58:43;4.27;;;1.60;;
5339;SDS011;2692;48.848;8.924;2022-09-03T06:01:14;2.37;;;1.50;;
5339;SDS011;2692;48.848;8.924;2022-09-03T06:03:44;2.60;;;1.57;;
5339;SDS011;2692;48.848;8.924;2022-09-03T06:06:11;3.30;;;1.73;;
5339;SDS011;2692;48.848;8.924;2022-09-03T06:08:37;2.30;;;1.50;;
5339;SDS011;2692;48.848;8.924;2022-09-03T06:11:03;2.43;;;1.30;;
5339;SDS011;2692;48.848;8.924;2022-09-03T06:13:30;2.53;;;1.73;;
5339;SDS011;2692;48.848;8.924;2022-09-03T06:15:57;6.20;;;1.77;;
5339;SDS011;2692;48.848;8.924;2022-09-03T06:18:23;2.83;;;1.97;;
5339;SDS011;2692;48.848;8.924;2022-09-03T06:20:53;4.03;;;1.87;;
5339;SDS011;2692;48.848;8.924;2022-09-03T06:23:19;3.70;;;1.70;;
5339;SDS011;2692;48.848;8.924;2022-09-03T06:25:45;3.03;;;1.60;;
5339;SDS011;2692;48.848;8.924;2022-09-03T06:28:10;3.93;;;2.70;;
5339;SDS011;2692;48.848;8.924;2022-09-03T06:30:35;4.50;;;1.70;;
5339;SDS011;2692;48.848;8.924;2022-09-03T06:33:01;6.40;;;2.23;;
5339;SDS011;2692;48.848;8.924;2022-09-03T06:35:26;4.50;;;2.13;;
5339;SDS011;2692;48.848;8.924;2022-09-03T06:37:51;2.90;;;1.77;;
5339;SDS011;2692;48.848;8.924;2022-09-03T06:40:17;3.17;;;1.53;;
5339;SDS011;2692;48.848;8.924;2022-09-03T06:42:53;2.73;;;1.43;;
5339;SDS011;2692;48.848;8.924;2022-09-03T06:45:20;2.30;;;1.40;;
5339;SDS011;2692;48.848;8.924;2022-09-03T06:47:45;4.40;;;2.07;;
5339;SDS011;2692;48.848;8.924;2022-09-03T06:50:10;3.40;;;1.93;;
5339;SDS011;2692;48.848;8.924;2022-09-03T06:52:37;4.43;;;1.90;;
5339;SDS011;2692;48.848;8.924;2022-09-03T06:55:02;4.73;;;2.57;;
5339;SDS011;2692;48.848;8.924;2022-09-03T06:57:28;2.60;;;1.73;;
5339;SDS011;2692;48.848;8.924;2022-09-03T06:59:53;2.77;;;2.07;;
5339;SDS011;2692;48.848;8.924;2022-09-03T07:02:19;4.20;;;1.83;;
5339;SDS011;2692;48.848;8.924;2022-09-03T07:04:46;5.90;;;1.87;;
5339;SDS011;2692;48.848;8.924;2022-09-03T07:07:13;3.13;;;1.77;;
5339;SDS011;2692;48.848;8.924;2022-09-03T07:09:40;3.90;;;1.70;;
5339;SDS011;2692;48.848;8.924;2022-09-03T07:12:05;6.53;;;2.10;;
5339;SDS011;2692;48.848;8.924;2022-09-03T07:14:31;2.03;;;1.30;;
5339;SDS011;2692;48.848;8.924;2022-09-03T07:16:56;3.47;;;1.80;;
5339;SDS011;2692;48.848;8.924;2022-09-03T07:19:21;8.47;;;2.00;;
5339;SDS011;2692;48.848;8.924;2022-09-03T07:21:46;3.93;;;1.77;;
5339;SDS011;2692;48.848;8.924;2022-09-03T07:24:12;3.20;;;1.77;;
5339;SDS011;2692;48.848;8.924;2022-09-03T07:26:40;3.77;;;1.80;;
5339;SDS011;2692;48.848;8.924;2022-09-03T07:29:11;4.20;;;2.10;;
5339;SDS011;2692;48.848;8.924;2022-09-03T07:31:39;4.10;;;1.90;;
5339;SDS011;2692;48.848;8.924;2022-09-03T07:34:07;3.90;;;1.90;;
5339;SDS011;2692;48.848;8.924;2022-09-03T07:36:37;4.60;;;2.67;;
5339;SDS011;2692;48.848;8.924;2022-09-03T07:39:04;3.67;;;2.03;;
5339;SDS011;2692;48.848;8.924;2022-09-03T07:41:30;2.50;;;1.50;;
5339;SDS011;2692;48.848;8.924;2022-09-03T07:43:57;3.30;;;1.63;;
5339;SDS011;2692;48.848;8.924;2022-09-03T07:46:24;4.60;;;2.47;;
5339;SDS011;2692;48.848;8.924;2022-09-03T07:48:52;4.20;;;2.17;;
5339;SDS011;2692;48.848;8.924;2022-09-03T07:51:22;8.53;;;2.07;;
5339;SDS011;2692;48.848;8.924;2022-09-03T07:53:56;4.23;;;2.40;;
5339;SDS011;2692;48.848;8.924;2022-09-03T07:56:22;4.33;;;1.60;;
5339;SDS011;2692;48.848;8.924;2022-09-03T07:58:48;4.57;;;2.23;;
5339;SDS011;2692;48.848;8.924;2022-09-03T08:01:15;2.87;;;1.70;;
5339;SDS011;2692;48.848;8.924;2022-09-03T08:03:42;6.47;;;1.93;;
5339;SDS011;2692;48.848;8.924;2022-09-03T08:06:09;4.00;;;1.70;;
5339;SDS011;2692;48.848;8.924;2022-09-03T08:08:35;4.10;;;2.10;;
5339;SDS011;2692;48.848;8.924;2022-09-03T08:13:37;3.50;;;2.40;;
5339;SDS011;2692;48.848;8.924;2022-09-03T08:16:04;7.87;;;2.50;;
5339;SDS011;2692;48.848;8.924;2022-09-03T08:18:31;3.40;;;1.97;;
5339;SDS011;2692;48.848;8.924;2022-09-03T08:21:11;3.87;;;2.10;;
5339;SDS011;2692;48.848;8.924;2022-09-03T08:23:40;6.83;;;2.00;;
5339;SDS011;2692;48.848;8.924;2022-09-03T08:26:07;6.23;;;1.90;;
5339;SDS011;2692;48.848;8.924;2022-09-03T08:28:33;4.20;;;2.53;;
5339;SDS011;2692;48.848;8.924;2022-09-03T08:31:18;2.63;;;1.70;;
5339;SDS011;2692;48.848;8.924;2022-09-03T08:33:46;4.37;;;2.23;;
5339;SDS011;2692;48.848;8.924;2022-09-03T08:36:20;4.30;;;2.07;;
5339;SDS011;2692;48.848;8.924;2022-09-03T08:38:53;4.80;;;2.27;;
5339;SDS011;2692;48.848;8.924;2022-09-03T08:41:23;2.80;;;1.70;;
5339;SDS011;2692;48.848;8.924;2022-09-03T08:46:50;4.77;;;2.60;;
5339;SDS011;2692;48.848;8.924;2022-09-03T08:55:46;3.60;;;1.93;;
5339;SDS011;2692;48.848;8.924;2022-09-03T09:00:25;3.47;;;1.80;;
5339;SDS011;2692;48.848;8.924;2022-09-03T09:03:05;8.70;;;3.00;;
5339;SDS011;2692;48.848;8.924;2022-09-03T09:05:53;4.03;;;1.87;;
5339;SDS011;2692;48.848;8.924;2022-09-03T09:08:33;2.57;;;1.40;;
5339;SDS011;2692;48.848;8.924;2022-09-03T09:21:55;3.30;;;1.67;;
5339;SDS011;2692;48.848;8.924;2022-09-03T09:24:25;4.10;;;1.83;;
5339;SDS011;2692;48.848;8.924;2022-09-03T09:26:58;4.93;;;1.80;;
5339;SDS011;2692;48.848;8.924;2022-09-03T09:29:28;3.73;;;1.97;;
5339;SDS011;2692;48.848;8.924;2022-09-03T09:31:56;3.13;;;1.50;;
5339;SDS011;2692;48.848;8.924;2022-09-03T09:34:21;2.50;;;1.30;;
5339;SDS011;2692;48.848;8.924;2022-09-03T09:36:48;3.10;;;1.90;;
5339;SDS011;2692;48.848;8.924;2022-09-03T09:39:16;4.30;;;2.20;;
5339;SDS011;2692;48.848;8.924;2022-09-03T09:41:41;3.10;;;1.40;;
5339;SDS011;2692;48.848;8.924;2022-09-03T09:44:16;2.00;;;1.10;;
5339;SDS011;2692;48.848;8.924;2022-09-03T09:46:43;2.83;;;1.60;;
5339;SDS011;2692;48.848;8.924;2022-09-03T09:52:10;4.37;;;2.13;;
5339;SDS011;2692;48.848;8.924;2022-09-03T09:54:37;4.27;;;1.93;;
5339;SDS011;2692;48.848;8.924;2022-09-03T09:57:04;3.27;;;1.40;;
5339;SDS011;2692;48.848;8.924;2022-09-03T09:59:31;3.80;;;1.50;;
5339;SDS011;2692;48.848;8.924;2022-09-03T10:04:33;3.80;;;1.93;;
5339;SDS011;2692;48.848;8.924;2022-09-03T10:07:02;2.50;;;1.47;;
5339;SDS011;2692;48.848;8.924;2022-09-03T10:09:29;2.83;;;1.73;;
5339;SDS011;2692;48.848;8.924;2022-09-03T10:14:58;2.70;;;1.67;;
5339;SDS011;2692;48.848;8.924;2022-09-03T10:20:33;3.63;;;1.20;;
5339;SDS011;2692;48.848;8.924;2022-09-03T10:28:21;3.17;;;1.80;;
5339;SDS011;2692;48.848;8.924;2022-09-03T10:31:12;5.73;;;1.90;;
5339;SDS011;2692;48.848;8.924;2022-09-03T10:34:08;3.30;;;1.30;;
5339;SDS011;2692;48.848;8.924;2022-09-03T10:39:20;2.87;;;1.27;;
5339;SDS011;2692;48.848;8.924;2022-09-03T10:42:06;2.93;;;1.40;;
5339;SDS011;2692;48.848;8.924;2022-09-03T10:50:02;2.90;;;1.40;;
5339;SDS011;2692;48.848;8.924;2022-09-03T10:52:56;3.00;;;1.70;;
5339;SDS011;2692;48.848;8.924;2022-09-03T10:56:01;2.60;;;1.40;;
5339;SDS011;2692;48.848;8.924;2022-09-03T11:04:27;2.40;;;1.47;;
5339;SDS011;2692;48.848;8.924;2022-09-03T11:07:03;2.23;;;1.23;;
5339;SDS011;2692;48.848;8.924;2022-09-03T11:12:05;2.20;;;1.30;;
5339;SDS011;2692;48.848;8.924;2022-09-03T11:14:41;5.97;;;1.30;;
5339;SDS011;2692;48.848;8.924;2022-09-03T11:17:45;3.37;;;1.60;;
5339;SDS011;2692;48.848;8.924;2022-09-03T11:20:16;2.60;;;1.27;;
5339;SDS011;2692;48.848;8.924;2022-09-03T11:22:45;3.73;;;1.90;;
5339;SDS011;2692;48.848;8.924;2022-09-03T11:25:12;2.37;;;1.27;;
5339;SDS011;2692;48.848;8.924;2022-09-03T11:30:08;3.20;;;1.77;;
5339;SDS011;2692;48.848;8.924;2022-09-03T11:43:34;3.80;;;1.70;;
5339;SDS011;2692;48.848;8.924;2022-09-03T11:53:57;3.30;;;1.60;;
5339;SDS011;2692;48.848;8.924;2022-09-03T11:56:39;2.60;;;1.33;;
5339;SDS011;2692;48.848;8.924;2022-09-03T11:59:14;2.27;;;1.27;;
5339;SDS011;2692;48.848;8.924;2022-09-03T12:04:29;2.73;;;1.23;;
5339;SDS011;2692;48.848;8.924;2022-09-03T12:09:47;3.97;;;1.63;;
5339;SDS011;2692;48.848;8.924;2022-09-03T12:20:40;3.53;;;1.70;;
5339;SDS011;2692;48.848;8.924;2022-09-03T12:23:06;3.63;;;1.50;;
5339;SDS011;2692;48.848;8.924;2022-09-03T12:25:32;3.50;;;1.60;;
5339;SDS011;2692;48.848;8.924;2022-09-03T12:27:58;3.53;;;1.67;;
5339;SDS011;2692;48.848;8.924;2022-09-03T12:30:27;3.00;;;1.57;;
5339;SDS011;2692;48.848;8.924;2022-09-03T12:33:01;3.53;;;1.80;;
5339;SDS011;2692;48.848;8.924;2022-09-03T12:35:30;3.53;;;1.33;;
5339;SDS011;2692;48.848;8.924;2022-09-03T12:37:55;2.53;;;0.93;;
5339;SDS011;2692;48.848;8.924;2022-09-03T12:40:22;2.50;;;0.80;;
5339;SDS011;2692;48.848;8.924;2022-09-03T12:42:50;2.00;;;0.50;;
5339;SDS011;2692;48.848;8.924;2022-09-03T12:45:23;2.07;;;0.70;;
5339;SDS011;2692;48.848;8.924;2022-09-03T12:47:49;1.83;;;0.50;;
5339;SDS011;2692;48.848;8.924;2022-09-03T12:50:19;1.20;;;0.40;;
5339;SDS011;2692;48.848;8.924;2022-09-03T12:52:52;1.10;;;0.40;;
5339;SDS011;2692;48.848;8.924;2022-09-03T13:00:40;1.67;;;0.60;;
5339;SDS011;2692;48.848;8.924;2022-09-03T13:03:14;1.97;;;0.73;;
5339;SDS011;2692;48.848;8.924;2022-09-03T13:06:01;1.10;;;0.40;;
5339;SDS011;2692;48.848;8.924;2022-09-03T13:08:36;1.20;;;0.40;;
5339;SDS011;2692;48.848;8.924;2022-09-03T13:11:05;1.60;;;0.70;;
5339;SDS011;2692;48.848;8.924;2022-09-03T13:13:32;1.40;;;0.60;;
5339;SDS011;2692;48.848;8.924;2022-09-03T13:24:01;3.00;;;0.83;;
5339;SDS011;2692;48.848;8.924;2022-09-03T13:29:20;1.60;;;0.70;;
5339;SDS011;2692;48.848;8.924;2022-09-03T13:34:58;1.53;;;0.53;;
5339;SDS011;2692;48.848;8.924;2022-09-03T13:37:36;1.87;;;0.63;;
5339;SDS011;2692;48.848;8.924;2022-09-03T13:40:13;4.33;;;0.73;;
5339;SDS011;2692;48.848;8.924;2022-09-03T13:45:22;1.60;;;0.50;;
5339;SDS011;2692;48.848;8.924;2022-09-03T13:47:57;1.40;;;0.50;;
5339;SDS011;2692;48.848;8.924;2022-09-03T13:50:46;2.33;;;0.73;;
5339;SDS011;2692;48.848;8.924;2022-09-03T13:53:20;2.80;;;0.90;;
5339;SDS011;2692;48.848;8.924;2022-09-03T13:56:33;1.57;;;0.53;;
5339;SDS011;2692;48.848;8.924;2022-09-03T13:59:47;1.40;;;0.60;;
5339;SDS011;2692;48.848;8.924;2022-09-03T14:02:53;1.63;;;0.70;;
5339;SDS011;2692;48.848;8.924;2022-09-03T14:05:00;1.27;;;0.53;;
5339;SDS011;2692;48.848;8.924;2022-09-03T14:13:29;2.00;;;1.00;;
5339;SDS011;2692;48.848;8.924;2022-09-03T14:18:54;2.90;;;1.73;;
5339;SDS011;2692;48.848;8.924;2022-09-03T14:21:24;3.97;;;1.77;;
5339;SDS011;2692;48.848;8.924;2022-09-03T14:26:49;2.57;;;0.87;;
5339;SDS011;2692;48.848;8.924;2022-09-03T14:29:20;9.13;;;1.27;;
5339;SDS011;2692;48.848;8.924;2022-09-03T14:34:59;1.20;;;0.50;;
5339;SDS011;2692;48.848;8.924;2022-09-03T14:45:48;1.70;;;0.93;;
5339;SDS011;2692;48.848;8.924;2022-09-03T14:54:01;2.73;;;1.00;;
5339;SDS011;2692;48.848;8.924;2022-09-03T15:01:53;3.53;;;1.27;;
5339;SDS011;2692;48.848;8.924;2022-09-03T15:09:59;2.40;;;0.97;;
5339;SDS011;2692;48.848;8.924;2022-09-03T15:15:09;2.03;;;1.07;;
5339;SDS011;2692;48.848;8.924;2022-09-03T15:17:46;1.60;;;0.80;;
5339;SDS011;2692;48.848;8.924;2022-09-03T15:33:31;2.50;;;1.37;;
5339;SDS011;2692;48.848;8.924;2022-09-03T15:38:41;10.17;;;1.70;;
5339;SDS011;2692;48.848;8.924;2022-09-03T15:41:20;3.20;;;1.00;;
5339;SDS011;2692;48.848;8.924;2022-09-03T15:43:56;3.70;;;1.40;;
5339;SDS011;2692;48.848;8.924;2022-09-03T15:46:29;3.10;;;1.67;;
5339;SDS011;2692;48.848;8.924;2022-09-03T15:49:00;3.50;;;1.30;;
5339;SDS011;2692;48.848;8.924;2022-09-03T15:54:31;2.10;;;1.20;;
5339;SDS011;2692;48.848;8.924;2022-09-03T15:57:12;3.13;;;1.40;;
5339;SDS011;2692;48.848;8.924;2022-09-03T15:59:47;2.63;;;1.47;;
5339;SDS011;2692;48.848;8.924;2022-09-03T16:02:22;2.33;;;1.00;;
5339;SDS011;2692;48.848;8.924;2022-09-03T16:10:07;2.23;;;1.30;;
5339;SDS011;2692;48.848;8.924;2022-09-03T16:15:27;3.63;;;1.23;;
5339;SDS011;2692;48.848;8.924;2022-09-03T16:18:00;2.07;;;1.20;;
5339;SDS011;2692;48.848;8.924;2022-09-03T16:20:58;2.23;;;1.30;;
5339;SDS011;2692;48.848;8.924;2022-09-03T16:23:30;2.37;;;1.47;;
5339;SDS011;2692;48.848;8.924;2022-09-03T16:26:02;2.30;;;1.40;;
5339;SDS011;2692;48.848;8.924;2022-09-03T16:31:56;2.27;;;1.30;;
5339;SDS011;2692;48.848;8.924;2022-09-03T16:51:00;4.20;;;1.23;;
5339;SDS011;2692;48.848;8.924;2022-09-03T16:59:31;2.23;;;1.10;;
5339;SDS011;2692;48.848;8.924;2022-09-03T17:02:05;2.20;;;1.10;;
5339;SDS011;2692;48.848;8.924;2022-09-03T17:07:35;2.23;;;1.20;;
5339;SDS011;2692;48.848;8.924;2022-09-03T17:15:46;1.97;;;1.30;;
5339;SDS011;2692;48.848;8.924;2022-09-03T17:26:10;2.43;;;1.37;;
5339;SDS011;2692;48.848;8.924;2022-09-03T17:34:05;3.00;;;1.60;;
5339;SDS011;2692;48.848;8.924;2022-09-03T17:36:39;3.30;;;1.47;;
5339;SDS011;2692;48.848;8.924;2022-09-03T17:42:17;2.87;;;1.57;;
5339;SDS011;2692;48.848;8.924;2022-09-03T17:44:53;3.10;;;1.47;;
5339;SDS011;2692;48.848;8.924;2022-09-03T17:52:40;2.90;;;1.70;;
5339;SDS011;2692;48.848;8.924;2022-09-03T17:55:13;3.40;;;1.53;;
5339;SDS011;2692;48.848;8.924;2022-09-03T17:58:13;2.37;;;1.53;;
5339;SDS011;2692;48.848;8.924;2022-09-03T18:00:43;2.63;;;1.40;;
5339;SDS011;2692;48.848;8.924;2022-09-03T18:03:31;2.90;;;1.67;;
5339;SDS011;2692;48.848;8.924;2022-09-03T18:07:20;3.57;;;1.67;;
5339;SDS011;2692;48.848;8.924;2022-09-03T18:09:50;2.70;;;1.60;;
5339;SDS011;2692;48.848;8.924;2022-09-03T18:15:12;2.50;;;1.73;;
5339;SDS011;2692;48.848;8.924;2022-09-03T18:18:01;2.00;;;1.10;;
5339;SDS011;2692;48.848;8.924;2022-09-03T18:20:31;3.27;;;1.30;;
5339;SDS011;2692;48.848;8.924;2022-09-03T18:23:38;3.60;;;1.53;;
5339;SDS011;2692;48.848;8.924;2022-09-03T18:26:40;4.10;;;1.67;;
5339;SDS011;2692;48.848;8.924;2022-09-03T18:29:31;3.40;;;1.50;;
5339;SDS011;2692;48.848;8.924;2022-09-03T18:32:19;2.67;;;1.70;;
5339;SDS011;2692;48.848;8.924;2022-09-03T18:35:03;1.73;;;1.27;;
5339;SDS011;2692;48.848;8.924;2022-09-03T18:37:47;4.10;;;2.43;;
5339;SDS011;2692;48.848;8.924;2022-09-03T18:40:35;2.33;;;1.40;;
5339;SDS011;2692;48.848;8.924;2022-09-03T18:43:44;2.63;;;1.30;;
5339;SDS011;2692;48.848;8.924;2022-09-03T18:46:52;3.43;;;1.67;;
5339;SDS011;2692;48.848;8.924;2022-09-03T18:52:52;4.90;;;1.90;;
5339;SDS011;2692;48.848;8.924;2022-09-03T18:58:41;2.40;;;1.30;;
5339;SDS011;2692;48.848;8.924;2022-09-03T19:01:35;3.03;;;1.80;;
5339;SDS011;2692;48.848;8.924;2022-09-03T19:04:23;3.53;;;2.37;;
5339;SDS011;2692;48.848;8.924;2022-09-03T19:07:25;3.50;;;2.10;;
5339;SDS011;2692;48.848;8.924;2022-09-03T19:13:37;2.03;;;1.33;;
5339;SDS011;2692;48.848;8.924;2022-09-03T19:16:30;5.50;;;1.83;;
5339;SDS011;2692;48.848;8.924;2022-09-03T19:19:21;2.17;;;1.20;;
5339;SDS011;2692;48.848;8.924;2022-09-03T19:22:15;3.10;;;1.50;;
5339;SDS011;2692;48.848;8.924;2022-09-03T19:25:11;2.80;;;1.70;;
